Dubrovnik, Croatia

1:48 AM CET on December 22, 2014 (GMT +0100)
Cilipi | Change Station
CLOSE
Current Station
Airport
Location: Dubrovnik,
Elevation: 541 ft
Nearby Weather Stations

Elev 541 ft 42.56 °N, 18.27 °E | Updated 18 minutes ago

Clear
Clear
45 °F
Feels Like 38 °F
N
13
Wind Variable Wind from NE

Today
High -- | Low -- °F
--% Chance of Precip.
Yesterday
High -- | Low -- °F
Precip. -- in
7:13 AM 4:17 PM
Waning Crescent, 0% visible
Pressure 30.45 in
Visibility -9999.0 miles
Clouds
Windchill 38 °F
Dew Point 21 °F
Humidity 39%
Rainfall 0.00 in
Snow Depth Not available.
UV Not available.
Pollen Not available.
Air Quality Not available.
Flu Activity Not available.
METAR LDDU 220030Z 05011KT 020V080 CAVOK 07/M06 Q1031

More Conditions Fewer Conditions

Pressure 30.45 in
Visibility -9999.0 miles
Clouds
Windchill 38 °F
Dew Point 21 °F
Humidity 39%
Rainfall 0.00 in
Snow Depth Not available.
UV Not available.
Pollen Not available.
Air Quality Not available.
Flu Activity Not available.
METAR LDDU 220030Z 05011KT 020V080 CAVOK 07/M06 Q1031

More Conditions Fewer Conditions

10-Day Weather Forecast

Almanac

Astronomy

Dec. 22, 2014 Rise Set
Actual Time
Civil Twilight
Nautical Twilight
Astronomical Twilight
Moon
Length of Visible Light
Length of Day
Tomorrow will be .
, % of the Moon is Illuminated

Today's Extremes

Country Highs Country Lows

Community

WunderPhotos

Upload Photos

1,779,509 photos uploaded!

WunderBlogs® & News

Nearby

Air Quality

  Air Quality AQ Index Pollutant
Not available.

Snow Depth

Station Depth Elevation

Earthquake Activity

City Distance Mag. Time & Date
Minimum magnitude displayed is 2.5.

Coastal Water Temperatures

Place Temperature

Nearby Weather Stations